Terminal Aerodrome Forecast
Issued by NWS

Current Version | Previous Version | Graphics & Text | Print | Product List | Glossary On
Versions: 1 2 3 4 5 6 7 8 9 10 11 12 13 14 15 16 17 18 19 20 21 22 23 24 25
000
FTUS41 KILN 180500
TAFLUK
TAF
KLUK 180540Z 1806/1906 28012KT P6SM OVC045
     FM181100 29013KT P6SM OVC022
      TEMPO 1811/1813 BKN015
     FM181900 31012G22KT P6SM VCSH OVC025
     FM182300 32010G18KT P6SM OVC022
      TEMPO 1902/1905 33008KT SCT022
     FM190500 34006KT P6SM SCT022=

USA.gov is the U.S. government's official web portal to all federal, state and local government web resources and services.